createdAt,value
2024-01-01T06:27:20.416Z,0.373
2024-01-01T06:31:04.929Z,0.747
2024-01-01T06:35:14.964Z,1.867
2024-01-01T06:37:48.020Z,2.988
2024-01-01T06:41:17.362Z,5.229
2024-01-01T06:43:50.447Z,7.843
2024-01-01T06:46:23.527Z,11.952
2024-01-01T06:49:01.871Z,17.554
2024-01-01T06:52:00.420Z,28.386
2024-01-01T06:54:43.677Z,42.205
2024-01-01T06:57:16.852Z,60.133
2024-01-01T07:00:15.438Z,87.772
2024-01-01T07:02:53.705Z,120.267
2024-01-01T07:05:32.118Z,157.617
2024-01-01T07:08:05.400Z,195.714
2024-01-01T07:11:03.641Z,246.51
2024-01-01T07:13:36.728Z,294.318
2024-01-01T07:16:14.893Z,346.608
2024-01-01T07:19:23.717Z,415.332
2024-01-01T07:22:01.880Z,475.092
2024-01-01T07:24:45.141Z,540.828
2024-01-01T07:27:18.304Z,606.564
2024-01-01T07:30:27.084Z,699.192
2024-01-01T07:33:20.756Z,794.808
2024-01-01T07:36:03.901Z,890.424
2024-01-01T07:38:42.064Z,1003.968
2024-01-01T07:41:30.519Z,1117.512
2024-01-01T07:44:31.164Z,1248.984
2024-01-01T07:47:02.381Z,1350.576
2024-01-01T07:49:35.364Z,1505.952
2024-01-01T07:52:13.554Z,1649.376
2024-01-01T07:55:07.141Z,1780.848
2024-01-01T07:57:50.436Z,1888.416
2024-01-01T08:00:23.563Z,1984.032
2024-01-01T08:03:12.071Z,2067.696
2024-01-01T08:06:05.581Z,2175.264
2024-01-01T08:09:14.306Z,2163.312
2024-01-01T08:11:57.561Z,1960.128
2024-01-01T08:14:35.848Z,2091.6
2024-01-01T08:17:24.252Z,1960.128
2024-01-01T08:20:38.277Z,2007.936
2024-01-01T08:24:02.243Z,1972.08
2024-01-01T08:27:16.152Z,2199.168
2024-01-01T08:30:04.689Z,2474.064
2024-01-01T08:32:42.831Z,2868.48
2024-01-01T08:35:16.188Z,2952.144
2024-01-01T08:37:49.268Z,3776.832
2024-01-01T08:40:37.427Z,5282.784
2024-01-01T08:43:15.610Z,7553.664
2024-01-01T08:45:48.803Z,10995.84
2024-01-01T08:48:42.377Z,10995.84
2024-01-01T08:51:30.800Z,11282.688
2024-01-01T08:54:29.414Z,11282.688
2024-01-01T08:57:07.732Z,11282.688
2024-01-01T08:59:40.853Z,11282.688
2024-01-01T09:02:24.163Z,11282.688
2024-01-01T09:04:57.318Z,10230.912
2024-01-01T09:07:32.767Z,7840.512
2024-01-01T09:10:06.269Z,5163.264
2024-01-01T09:12:44.320Z,4780.8
2024-01-01T09:15:37.828Z,3107.52
2024-01-01T09:18:36.582Z,3322.656
2024-01-01T09:21:19.798Z,3298.752
2024-01-01T09:23:52.915Z,5115.456
2024-01-01T09:26:36.937Z,9179.136
2024-01-01T09:29:10.269Z,6095.52
2024-01-01T09:31:58.512Z,6740.928
2024-01-01T09:34:36.744Z,7697.088
2024-01-01T09:37:09.287Z,10565.568
2024-01-01T09:39:42.441Z,8796.672
2024-01-01T09:42:15.608Z,6310.656
2024-01-01T09:45:11.063Z,7697.088
2024-01-01T09:47:44.480Z,6549.696
2024-01-01T09:50:17.661Z,7219.008
2024-01-01T09:52:55.879Z,6836.544
2024-01-01T09:55:34.131Z,7458.048
2024-01-01T09:58:12.348Z,10183.104
2024-01-01T10:00:45.416Z,10948.032
2024-01-01T10:03:28.772Z,11043.648
2024-01-01T10:06:19.654Z,9896.256
2024-01-01T10:08:52.773Z,7792.704
2024-01-01T10:11:25.958Z,6119.424
2024-01-01T10:14:09.332Z,5904.288
2024-01-01T10:16:47.481Z,6979.968
2024-01-01T10:19:30.922Z,7983.936
2024-01-01T10:22:08.699Z,9465.984
2024-01-01T10:25:17.545Z,9991.872
2024-01-01T10:28:26.462Z,10230.912
2024-01-01T10:31:09.673Z,12621.312
2024-01-01T10:33:43.021Z,9418.176
2024-01-01T10:36:21.168Z,9226.944
2024-01-01T10:39:14.650Z,9274.752
2024-01-01T10:41:47.862Z,9131.328
2024-01-01T10:44:20.961Z,10469.952
2024-01-01T10:46:54.038Z,10756.8
2024-01-01T10:49:37.309Z,12908.16
2024-01-01T10:52:10.457Z,12191.04
2024-01-01T10:54:43.586Z,12621.312
2024-01-01T10:57:32.281Z,11043.648
2024-01-01T11:00:05.239Z,14629.248
2024-01-01T11:02:38.420Z,14820.48
2024-01-01T11:05:12.293Z,15585.408
2024-01-01T11:07:42.573Z,15967.872
2024-01-01T11:10:29.781Z,10708.992
2024-01-01T11:13:08.186Z,11904.192
2024-01-01T11:16:11.804Z,8605.44
2024-01-01T11:19:05.156Z,11569.536
2024-01-01T11:21:36.371Z,17019.648
2024-01-01T11:24:14.366Z,9083.52
2024-01-01T11:26:51.436Z,17593.344
2024-01-01T11:29:27.631Z,13959.936
2024-01-01T11:32:05.807Z,14916.096
2024-01-01T11:34:46.846Z,21322.368
2024-01-01T11:37:16.721Z,16063.488
2024-01-01T11:39:54.948Z,8940.096
2024-01-01T11:42:43.654Z,8462.016
2024-01-01T11:45:24.993Z,14342.4
2024-01-01T11:47:55.520Z,17880.192
2024-01-01T11:51:09.423Z,15967.872
2024-01-01T11:53:42.551Z,17688.96
2024-01-01T11:56:20.999Z,16828.416
2024-01-01T11:58:54.053Z,20939.904
2024-01-01T12:01:27.298Z,20461.824
2024-01-01T12:04:04.867Z,17975.808
2024-01-01T12:06:38.721Z,9513.792
2024-01-01T12:09:22.210Z,9274.752
2024-01-01T12:12:10.533Z,6932.16
2024-01-01T12:14:55.451Z,6884.352
2024-01-01T12:17:42.392Z,7123.392
2024-01-01T12:20:25.744Z,8222.976
2024-01-01T12:23:29.428Z,6597.504
2024-01-01T12:26:33.074Z,7314.624
2024-01-01T12:29:08.749Z,8557.632
2024-01-01T12:32:12.298Z,7840.512
2024-01-01T12:34:45.529Z,7983.936
2024-01-01T12:37:28.753Z,8031.744
2024-01-01T12:40:02.007Z,7697.088
2024-01-01T12:42:45.298Z,9322.56
2024-01-01T12:45:46.610Z,19123.2
2024-01-01T12:48:18.143Z,8127.36
2024-01-01T12:50:59.318Z,7027.776
2024-01-01T12:53:37.574Z,7266.816
2024-01-01T12:56:26.068Z,6932.16
2024-01-01T12:59:29.765Z,7123.392
2024-01-01T13:02:02.965Z,4565.664
2024-01-01T13:04:46.208Z,5091.552
2024-01-01T13:07:19.382Z,5497.92
2024-01-01T13:09:52.572Z,5521.824
2024-01-01T13:12:25.663Z,5569.632
2024-01-01T13:14:58.773Z,5808.672
2024-01-01T13:17:31.922Z,4278.816
2024-01-01T13:21:21.379Z,4374.432
2024-01-01T13:24:20.004Z,4111.488
2024-01-01T13:26:53.095Z,5521.824
2024-01-01T13:29:36.497Z,6215.04
2024-01-01T13:32:24.918Z,5736.96
2024-01-01T13:35:33.688Z,5474.016
2024-01-01T13:38:10.473Z,6406.272
2024-01-01T13:40:53.803Z,4541.76
2024-01-01T13:43:37.035Z,3705.12
2024-01-01T13:46:15.232Z,3489.984
2024-01-01T13:48:48.918Z,3203.136
2024-01-01T13:51:26.638Z,2665.296
2024-01-01T13:53:59.792Z,2235.024
2024-01-01T13:56:32.920Z,2354.544
2024-01-01T13:59:06.146Z,2820.672
2024-01-01T14:01:40.899Z,4780.8
2024-01-01T14:04:19.075Z,4039.776
2024-01-01T14:07:02.383Z,3131.424
2024-01-01T14:09:40.658Z,3442.176
2024-01-01T14:12:34.135Z,3298.752
2024-01-01T14:15:07.266Z,2617.488
2024-01-01T14:17:40.527Z,2450.16
2024-01-01T14:20:13.604Z,2330.64
2024-01-01T14:22:46.722Z,2043.792
2024-01-01T14:25:19.935Z,1625.472
2024-01-01T14:27:58.015Z,1338.624
2024-01-01T14:30:36.259Z,1392.408
2024-01-01T14:33:09.852Z,1308.744
2024-01-01T14:35:47.735Z,1093.608
2024-01-01T14:39:21.963Z,920.304
2024-01-01T14:41:55.021Z,761.94
2024-01-01T14:44:38.390Z,758.952
2024-01-01T14:47:26.929Z,824.688
2024-01-01T14:50:00.099Z,711.144
2024-01-01T14:52:33.202Z,606.564
2024-01-01T14:55:19.238Z,519.912
2024-01-01T14:57:52.442Z,436.248
2024-01-01T15:00:56.200Z,388.44
2024-01-01T15:03:29.377Z,307.764
2024-01-01T15:06:28.080Z,239.04
2024-01-01T15:09:26.690Z,227.088
2024-01-01T15:12:25.242Z,204.678
2024-01-01T15:14:59.152Z,171.063
2024-01-01T15:17:41.891Z,131.472
2024-01-01T15:20:14.856Z,99.351
2024-01-01T15:22:58.166Z,73.206
2024-01-01T15:25:51.724Z,52.29
2024-01-01T15:28:32.484Z,36.976
2024-01-01T15:31:10.748Z,25.771
2024-01-01T15:33:54.110Z,16.06
2024-01-01T15:37:03.012Z,7.096
2024-01-01T15:40:22.054Z,3.361
2024-01-01T15:43:51.362Z,2.241
2024-01-01T15:47:51.219Z,1.12
2024-01-01T15:51:51.131Z,0.373
2024-01-01T16:00:47.150Z,0
2024-01-01T16:36:27.313Z,0.373
